Time;durP1;ratioP1;P1;durP2;ratioP2;P2;SDS_P1;SDS_P2;PMS_P1;PMS_P2;Temp;Humidity;BMP_temperature;BMP_pressure;BME280_temperature;BME280_humidity;BME280_pressure;Samples;Min_cycle;Max_cycle;Signal;HPM_P1;HPM_P2
2023/07/14 00:02:42;;;;;;;8.18;4.28;;;25.40;68.30;;;;;;6202617;27;80493;-57
2023/07/14 00:05:43;;;;;;;4.90;3.88;;;25.50;68.60;;;;;;6202364;28;83857;-57
2023/07/14 00:08:44;;;;;;;6.63;4.30;;;25.50;68.40;;;;;;6192429;27;81422;-58
2023/07/14 00:11:44;;;;;;;7.68;4.70;;;25.40;67.70;;;;;;6180912;28;80952;-58
2023/07/14 00:14:45;;;;;;;5.95;4.15;;;25.30;67.90;;;;;;6183407;28;81175;-56
2023/07/14 00:17:46;;;;;;;8.02;4.28;;;25.10;68.30;;;;;;6181087;28;81142;-57
2023/07/14 00:20:46;;;;;;;8.07;4.47;;;25.20;68.50;;;;;;6189323;27;83215;-56
2023/07/14 00:23:47;;;;;;;6.85;4.00;;;25.20;68.40;;;;;;6182579;28;80888;-57
2023/07/14 00:26:48;;;;;;;6.57;4.13;;;25.10;68.50;;;;;;6182843;28;80781;-56
2023/07/14 00:29:49;;;;;;;7.70;4.20;;;25.00;68.70;;;;;;6175851;28;81500;-57
2023/07/14 00:32:50;;;;;;;4.35;3.60;;;25.10;68.80;;;;;;6177019;28;81305;-58
2023/07/14 00:35:50;;;;;;;8.57;4.72;;;25.10;69.10;;;;;;6183273;28;83064;-59
2023/07/14 00:38:51;;;;;;;5.60;3.70;;;25.10;68.50;;;;;;6193709;27;80449;-59
2023/07/14 00:41:51;;;;;;;5.25;3.65;;;25.20;68.40;;;;;;6198197;28;81802;-58
2023/07/14 00:44:52;;;;;;;5.28;3.92;;;25.20;68.30;;;;;;6200420;28;81026;-60
2023/07/14 00:47:52;;;;;;;5.18;3.53;;;25.20;68.20;;;;;;6201904;27;80728;-58
2023/07/14 00:50:53;;;;;;;5.68;3.40;;;25.20;68.30;;;;;;6195445;27;80820;-57
2023/07/14 00:53:53;;;;;;;4.72;4.05;;;25.20;67.90;;;;;;6177384;28;80478;-57
2023/07/14 00:56:54;;;;;;;6.47;3.17;;;25.20;67.90;;;;;;6183814;28;81169;-55
2023/07/14 00:59:55;;;;;;;4.55;3.47;;;25.20;67.80;;;;;;6192473;28;82129;-57
2023/07/14 01:02:56;;;;;;;5.72;3.42;;;25.30;67.90;;;;;;6205464;28;81749;-56
2023/07/14 01:05:56;;;;;;;6.80;3.30;;;25.30;67.80;;;;;;6200862;27;80764;-56
2023/07/14 01:08:59;;;;;;;6.05;3.55;;;25.30;67.50;;;;;;6188427;27;80528;-58
2023/07/14 01:11:59;;;;;;;7.63;3.72;;;25.30;67.50;;;;;;6196097;27;84226;-58
2023/07/14 01:15:01;;;;;;;4.75;3.78;;;25.30;67.60;;;;;;6206569;27;80544;-58
2023/07/14 01:18:01;;;;;;;4.45;3.95;;;25.30;67.50;;;;;;6205390;27;81668;-59
2023/07/14 01:21:02;;;;;;;5.18;3.35;;;25.40;67.70;;;;;;6196449;28;80561;-58
2023/07/14 01:24:03;;;;;;;7.82;3.70;;;25.40;67.30;;;;;;6184109;27;81258;-60
2023/07/14 01:27:04;;;;;;;5.38;3.33;;;25.40;67.40;;;;;;6192738;28;83818;-60
2023/07/14 01:30:05;;;;;;;3.60;3.30;;;25.40;67.10;;;;;;6191195;28;80471;-59
2023/07/14 01:33:06;;;;;;;6.13;3.63;;;25.40;66.90;;;;;;6191001;28;80795;-59
2023/07/14 01:36:07;;;;;;;6.38;3.65;;;25.40;66.60;;;;;;6189098;28;83449;-58
2023/07/14 01:39:10;;;;;;;4.68;3.58;;;25.30;66.80;;;;;;6196833;28;80602;-57
2023/07/14 01:42:12;;;;;;;5.25;4.05;;;25.20;66.50;;;;;;6193917;28;82116;-58
2023/07/14 01:45:13;;;;;;;4.00;3.60;;;25.20;66.40;;;;;;6203323;28;80332;-58
2023/07/14 01:48:14;;;;;;;7.32;3.85;;;25.20;66.50;;;;;;6225329;27;80460;-59
2023/07/14 01:51:15;;;;;;;3.58;3.28;;;25.20;66.80;;;;;;6226146;27;81069;-61
2023/07/14 01:54:16;;;;;;;4.70;3.72;;;25.20;66.40;;;;;;6226118;27;80924;-59
2023/07/14 01:57:16;;;;;;;6.20;3.83;;;25.00;66.20;;;;;;6214317;27;80557;-59
2023/07/14 02:00:17;;;;;;;6.57;3.60;;;25.00;66.60;;;;;;6199476;28;82849;-60
2023/07/14 02:03:19;;;;;;;5.28;3.60;;;24.90;66.60;;;;;;6201519;28;80535;-60
2023/07/14 02:06:20;;;;;;;5.75;3.53;;;25.00;66.80;;;;;;6191078;28;80941;-60
2023/07/14 02:09:20;;;;;;;16.95;4.13;;;25.00;66.60;;;;;;6198281;28;82203;-59
2023/07/14 02:12:21;;;;;;;7.57;4.38;;;24.90;66.50;;;;;;6189474;28;83332;-59
2023/07/14 02:15:21;;;;;;;7.03;4.10;;;24.90;66.50;;;;;;6177087;28;81079;-59
2023/07/14 02:18:22;;;;;;;7.15;4.22;;;25.00;66.60;;;;;;6187750;28;80452;-58
2023/07/14 02:21:23;;;;;;;5.78;3.85;;;25.00;66.60;;;;;;6190279;28;83201;-59
2023/07/14 02:24:23;;;;;;;6.95;4.30;;;25.00;66.50;;;;;;6181007;28;81008;-59
2023/07/14 02:27:24;;;;;;;7.10;4.35;;;25.00;66.40;;;;;;6174868;28;81254;-59
2023/07/14 02:30:26;;;;;;;10.07;5.35;;;25.00;66.40;;;;;;6176441;28;80615;-60
2023/07/14 02:33:26;;;;;;;6.65;4.53;;;24.90;66.40;;;;;;6189428;28;81217;-60
2023/07/14 02:36:27;;;;;;;14.13;4.72;;;24.80;66.70;;;;;;6198338;28;83766;-59
2023/07/14 02:39:28;;;;;;;11.23;4.60;;;24.80;66.80;;;;;;6178619;28;80265;-59
2023/07/14 02:42:28;;;;;;;8.98;5.07;;;24.80;66.90;;;;;;6084467;28;82173;-58
2023/07/14 02:45:29;;;;;;;9.23;4.55;;;24.80;66.70;;;;;;6150856;28;81734;-58
2023/07/14 02:48:29;;;;;;;6.18;4.13;;;24.80;66.80;;;;;;6188820;28;80941;-57
2023/07/14 02:51:30;;;;;;;10.95;4.68;;;24.70;66.70;;;;;;6175945;28;81070;-56
2023/07/14 02:54:30;;;;;;;8.13;4.00;;;24.60;67.10;;;;;;6178562;28;87531;-60
2023/07/14 02:57:31;;;;;;;5.57;4.82;;;24.40;67.80;;;;;;6176761;27;80388;-56
2023/07/14 03:00:31;;;;;;;7.80;4.95;;;24.30;68.30;;;;;;6176514;28;81153;-54
2023/07/14 03:03:33;;;;;;;5.65;4.00;;;24.10;69.20;;;;;;6190754;28;82784;-57
2023/07/14 03:06:34;;;;;;;6.30;4.22;;;24.30;69.30;;;;;;6185936;28;83235;-54
2023/07/14 03:09:34;;;;;;;6.93;4.68;;;24.30;69.20;;;;;;6178292;28;80868;-55
2023/07/14 03:12:35;;;;;;;9.45;4.93;;;24.40;69.00;;;;;;6179964;28;80865;-52
2023/07/14 03:15:35;;;;;;;7.35;4.80;;;24.40;68.80;;;;;;6187901;28;82085;-54
2023/07/14 03:18:36;;;;;;;6.95;4.50;;;24.50;68.60;;;;;;6176362;28;81409;-59
2023/07/14 03:21:37;;;;;;;8.10;4.50;;;24.60;68.40;;;;;;6181074;27;80631;-59
2023/07/14 03:24:38;;;;;;;6.03;4.63;;;24.60;68.10;;;;;;6179786;28;83764;-57
2023/07/14 03:27:43;;;;;;;8.00;4.15;;;24.40;67.80;;;;;;6194077;27;82344;-57
2023/07/14 03:30:44;;;;;;;6.00;4.35;;;24.30;68.40;;;;;;6202108;28;81738;-58
2023/07/14 03:33:45;;;;;;;8.70;3.95;;;24.20;69.00;;;;;;6203614;28;80637;-57
2023/07/14 03:36:45;;;;;;;6.72;4.40;;;24.10;69.10;;;;;;6225067;27;83568;-60
2023/07/14 03:39:46;;;;;;;7.38;4.30;;;24.10;69.70;;;;;;6222641;27;83550;-59
2023/07/14 03:42:46;;;;;;;6.32;4.70;;;24.00;69.60;;;;;;6216879;28;81770;-58
2023/07/14 03:45:47;;;;;;;6.40;4.50;;;24.00;69.90;;;;;;6226073;27;83164;-59
2023/07/14 03:48:49;;;;;;;6.15;4.25;;;23.90;70.70;;;;;;6223819;27;83222;-60
2023/07/14 03:51:49;;;;;;;6.60;4.53;;;23.90;70.40;;;;;;6225561;27;80706;-60
2023/07/14 03:54:50;;;;;;;9.15;4.30;;;23.90;70.20;;;;;;6216622;28;81839;-58
2023/07/14 03:57:50;;;;;;;7.82;4.22;;;23.80;70.70;;;;;;6190982;27;80680;-58
2023/07/14 04:00:51;;;;;;;7.75;3.97;;;24.00;70.70;;;;;;6196961;28;80282;-58
2023/07/14 04:03:51;;;;;;;9.82;4.45;;;24.10;70.30;;;;;;6203443;27;81641;-60
2023/07/14 04:06:52;;;;;;;11.30;4.97;;;24.10;69.70;;;;;;6199616;27;81786;-59
2023/07/14 04:09:53;;;;;;;8.98;4.60;;;24.10;69.50;;;;;;6181834;28;83774;-60
2023/07/14 04:12:54;;;;;;;7.22;4.30;;;24.20;69.30;;;;;;6200771;28;83197;-56
2023/07/14 04:15:54;;;;;;;8.52;4.70;;;24.30;69.10;;;;;;6194865;28;82376;-56
2023/07/14 04:18:55;;;;;;;11.25;4.95;;;24.40;68.70;;;;;;6194281;27;80348;-58
2023/07/14 04:21:55;;;;;;;9.25;4.35;;;24.50;68.50;;;;;;6193168;27;80157;-58
2023/07/14 04:24:58;;;;;;;6.72;4.68;;;24.60;68.40;;;;;;6191516;28;80390;-57
2023/07/14 04:27:58;;;;;;;7.95;4.78;;;24.60;68.10;;;;;;6178399;28;80356;-57
2023/07/14 04:31:00;;;;;;;9.75;4.78;;;24.60;67.90;;;;;;6183672;27;81188;-57
2023/07/14 04:34:01;;;;;;;7.10;4.50;;;24.70;67.90;;;;;;6200853;27;80681;-58
2023/07/14 04:37:01;;;;;;;10.18;4.80;;;24.70;67.50;;;;;;6202454;28;80625;-58
2023/07/14 04:40:04;;;;;;;9.82;5.05;;;24.80;67.40;;;;;;6189059;28;81021;-58
2023/07/14 04:43:04;;;;;;;12.57;4.88;;;24.80;67.40;;;;;;6187683;28;81266;-58
2023/07/14 04:46:05;;;;;;;11.95;5.68;;;24.80;67.60;;;;;;6178700;28;81463;-58
2023/07/14 04:49:05;;;;;;;6.80;5.13;;;24.90;67.30;;;;;;6193095;28;82111;-56
2023/07/14 04:52:06;;;;;;;7.43;5.47;;;24.80;67.30;;;;;;6182124;28;81168;-55
2023/07/14 04:55:07;;;;;;;8.95;4.90;;;24.70;67.40;;;;;;6176979;28;81744;-56
2023/07/14 04:58:07;;;;;;;11.85;5.13;;;24.70;67.70;;;;;;6177655;27;80630;-57
2023/07/14 05:01:08;;;;;;;6.07;5.10;;;24.80;67.90;;;;;;6178251;28;80497;-55
2023/07/14 05:04:08;;;;;;;11.05;5.65;;;24.80;67.80;;;;;;6178315;28;80456;-57
2023/07/14 05:07:09;;;;;;;12.40;5.55;;;24.70;67.50;;;;;;6189782;28;81151;-56
2023/07/14 05:10:09;;;;;;;12.88;6.68;;;24.70;67.90;;;;;;6187831;27;80467;-60
2023/07/14 05:13:10;;;;;;;9.02;5.03;;;24.70;68.00;;;;;;6189853;28;80290;-57
2023/07/14 05:16:10;;;;;;;9.52;5.18;;;24.80;68.30;;;;;;6186864;27;82192;-55
2023/07/14 05:19:11;;;;;;;8.90;5.18;;;24.90;68.00;;;;;;6178992;28;81062;-56
2023/07/14 05:22:11;;;;;;;15.52;5.45;;;25.00;67.70;;;;;;6198060;27;81521;-57
2023/07/14 05:25:12;;;;;;;10.00;5.10;;;24.90;67.40;;;;;;6201901;27;80317;-60
2023/07/14 05:28:12;;;;;;;12.07;6.07;;;25.00;67.60;;;;;;6180054;28;80916;-63
2023/07/14 05:31:13;;;;;;;13.10;5.68;;;24.90;68.30;;;;;;6187435;28;81130;-61
2023/07/14 05:34:14;;;;;;;9.23;4.70;;;25.00;68.20;;;;;;6201055;27;81168;-60
2023/07/14 05:37:14;;;;;;;9.93;5.22;;;25.10;68.50;;;;;;6198121;27;85728;-59
2023/07/14 05:40:16;;;;;;;11.60;5.57;;;25.20;68.70;;;;;;6199599;28;80526;-59
2023/07/14 05:43:16;;;;;;;8.05;4.40;;;25.10;68.10;;;;;;6179969;28;81999;-64
2023/07/14 05:46:17;;;;;;;10.18;4.30;;;25.10;67.90;;;;;;6178202;28;81031;-61
2023/07/14 05:49:18;;;;;;;7.80;4.90;;;25.10;68.10;;;;;;6180565;28;83378;-59
2023/07/14 05:52:18;;;;;;;7.07;4.15;;;25.10;68.60;;;;;;6180429;28;81718;-59
2023/07/14 05:55:19;;;;;;;10.07;4.05;;;25.20;68.00;;;;;;6181403;27;83894;-58
2023/07/14 05:58:19;;;;;;;9.52;3.58;;;25.30;67.90;;;;;;6198072;28;80649;-59
2023/07/14 06:01:20;;;;;;;7.82;4.88;;;25.10;67.60;;;;;;6199033;27;80986;-59
2023/07/14 06:04:20;;;;;;;9.00;4.85;;;24.80;67.50;;;;;;6198420;28;80427;-58
2023/07/14 06:07:21;;;;;;;14.57;4.00;;;24.80;68.00;;;;;;6200282;27;80689;-58
2023/07/14 06:10:22;;;;;;;8.48;4.00;;;25.00;67.60;;;;;;6198112;27;80537;-57
2023/07/14 06:13:22;;;;;;;7.63;4.40;;;25.10;67.40;;;;;;6196330;27;83072;-59
2023/07/14 06:16:23;;;;;;;7.35;3.92;;;25.20;67.80;;;;;;6182820;27;81236;-58
2023/07/14 06:19:23;;;;;;;6.95;4.82;;;25.10;67.60;;;;;;6074598;28;82281;-59
2023/07/14 06:22:24;;;;;;;9.23;5.07;;;25.10;67.30;;;;;;6164092;27;82647;-60
2023/07/14 06:25:25;;;;;;;6.78;4.50;;;24.90;67.60;;;;;;6197121;27;81433;-62
2023/07/14 06:28:25;;;;;;;14.68;4.38;;;24.80;68.10;;;;;;6191392;28;80915;-60
2023/07/14 06:31:26;;;;;;;6.03;4.18;;;25.00;68.10;;;;;;6189473;27;80804;-60
2023/07/14 06:34:26;;;;;;;12.80;4.10;;;25.10;67.80;;;;;;6186476;28;80551;-64
2023/07/14 06:37:27;;;;;;;8.48;4.38;;;25.00;67.70;;;;;;6199508;27;80467;-64
2023/07/14 06:40:27;;;;;;;7.97;4.47;;;25.00;67.90;;;;;;6190098;28;83622;-63
2023/07/14 06:43:28;;;;;;;11.98;4.72;;;24.90;67.80;;;;;;6188257;28;82500;-61
2023/07/14 06:46:29;;;;;;;10.98;4.03;;;24.90;68.10;;;;;;6196386;27;81038;-61
2023/07/14 06:49:30;;;;;;;7.22;4.05;;;25.10;67.80;;;;;;6199795;28;81012;-61
2023/07/14 06:52:30;;;;;;;8.75;4.30;;;25.10;67.50;;;;;;6193027;27;80303;-61
2023/07/14 06:55:31;;;;;;;7.07;4.18;;;25.10;67.50;;;;;;6207185;27;82834;-60
2023/07/14 06:58:31;;;;;;;7.20;4.80;;;25.20;67.20;;;;;;6202556;27;80708;-61
2023/07/14 07:01:32;;;;;;;9.77;4.07;;;25.00;67.20;;;;;;6204222;27;80887;-60
2023/07/14 07:04:32;;;;;;;5.43;3.90;;;25.10;67.00;;;;;;6181025;28;82154;-60
2023/07/14 07:07:33;;;;;;;9.07;4.85;;;25.10;67.30;;;;;;6188007;28;80428;-64
2023/07/14 07:10:34;;;;;;;9.55;4.68;;;24.70;67.70;;;;;;6198290;28;83709;-60
2023/07/14 07:13:34;;;;;;;5.43;4.40;;;24.60;69.00;;;;;;6197131;27;80547;-61
2023/07/14 07:16:35;;;;;;;5.85;3.92;;;24.60;68.80;;;;;;6198108;27;82187;-60
2023/07/14 07:19:36;;;;;;;8.05;3.97;;;24.50;69.30;;;;;;6188807;28;84253;-61
2023/07/14 07:22:36;;;;;;;6.53;3.85;;;24.60;68.90;;;;;;6185314;28;80346;-55
2023/07/14 07:25:37;;;;;;;7.47;4.07;;;24.90;68.50;;;;;;6196958;27;80335;-58
2023/07/14 07:28:38;;;;;;;5.78;3.60;;;25.10;68.00;;;;;;6193198;28;80765;-60
2023/07/14 07:31:38;;;;;;;6.30;3.95;;;25.20;67.40;;;;;;6183800;27;81002;-64
2023/07/14 07:34:39;;;;;;;9.43;3.42;;;25.30;66.80;;;;;;6185217;28;80025;-67
2023/07/14 07:37:40;;;;;;;9.38;3.70;;;25.40;66.20;;;;;;6198556;27;80967;-68
2023/07/14 07:40:41;;;;;;;4.78;3.20;;;25.50;66.00;;;;;;6206062;27;80551;-66
2023/07/14 07:43:42;;;;;;;5.47;3.55;;;25.40;65.30;;;;;;6199063;27;80523;-67
2023/07/14 07:46:42;;;;;;;5.18;3.88;;;25.40;64.70;;;;;;6184181;27;85322;-67
2023/07/14 07:49:43;;;;;;;4.75;3.30;;;25.40;64.60;;;;;;6198381;27;81042;-67
2023/07/14 07:52:43;;;;;;;6.57;3.70;;;25.40;63.90;;;;;;6192884;28;80169;-67
2023/07/14 07:55:44;;;;;;;9.45;3.60;;;25.30;64.40;;;;;;6198994;28;80458;-69
2023/07/14 07:58:44;;;;;;;7.07;3.45;;;25.40;64.00;;;;;;6184729;28;82544;-69
2023/07/14 08:01:48;;;;;;;5.07;3.25;;;25.30;63.40;;;;;;6193670;28;80812;-68
2023/07/14 08:04:49;;;;;;;7.97;3.70;;;25.40;62.90;;;;;;6192935;28;83484;-67
2023/07/14 08:07:50;;;;;;;6.15;3.42;;;25.50;63.40;;;;;;6196529;27;81043;-65
2023/07/14 08:10:50;;;;;;;9.88;3.50;;;25.50;62.50;;;;;;6192588;28;82880;-67
2023/07/14 08:13:51;;;;;;;11.15;4.47;;;25.40;62.20;;;;;;6189039;27;80197;-67
2023/07/14 08:16:51;;;;;;;5.88;3.58;;;25.40;61.30;;;;;;6201804;27;80292;-69
2023/07/14 08:19:52;;;;;;;7.13;3.58;;;25.40;61.30;;;;;;6188322;28;81368;-67
2023/07/14 08:22:52;;;;;;;4.43;3.15;;;25.50;61.40;;;;;;6203127;27;80541;-70
2023/07/14 08:25:53;;;;;;;4.75;3.15;;;25.70;61.40;;;;;;6195006;27;81547;-73
2023/07/14 08:28:54;;;;;;;8.98;3.28;;;25.80;61.30;;;;;;6201938;27;81172;-67
2023/07/14 08:31:54;;;;;;;6.53;3.10;;;25.90;61.40;;;;;;6195323;27;80896;-65
2023/07/14 08:34:55;;;;;;;6.70;2.80;;;26.00;61.20;;;;;;6191208;27;80769;-68
2023/07/14 08:37:55;;;;;;;4.45;2.67;;;26.10;61.10;;;;;;6188489;27;80924;-68
2023/07/14 08:40:56;;;;;;;5.68;3.05;;;26.00;60.10;;;;;;6197951;27;81313;-68
2023/07/14 08:43:58;;;;;;;6.32;3.47;;;26.00;60.40;;;;;;6193505;27;80358;-63
2023/07/14 08:46:59;;;;;;;7.13;3.17;;;26.20;60.90;;;;;;6196596;27;80483;-64
2023/07/14 08:50:00;;;;;;;6.30;3.08;;;26.10;60.50;;;;;;6196215;28;80890;-60
2023/07/14 08:53:03;;;;;;;5.75;2.90;;;26.20;60.80;;;;;;6201267;27;80854;-59
2023/07/14 08:56:03;;;;;;;4.57;2.97;;;26.10;59.30;;;;;;6200730;27;82180;-57
2023/07/14 08:59:04;;;;;;;7.55;3.00;;;26.20;59.40;;;;;;6203069;27;81140;-56
2023/07/14 09:02:04;;;;;;;7.70;3.25;;;26.20;59.40;;;;;;6202338;27;81133;-56
2023/07/14 09:05:05;;;;;;;7.00;3.30;;;26.20;59.00;;;;;;6203011;27;80391;-57
2023/07/14 09:08:05;;;;;;;5.28;2.85;;;26.30;59.00;;;;;;6196717;28;80537;-62
2023/07/14 09:11:06;;;;;;;5.53;3.30;;;26.30;59.50;;;;;;6186870;27;80573;-62
2023/07/14 09:14:07;;;;;;;7.07;3.20;;;26.40;59.70;;;;;;6191102;28;81034;-59
2023/07/14 09:17:07;;;;;;;7.88;3.50;;;26.40;60.10;;;;;;6179428;28;80183;-62
2023/07/14 09:20:08;;;;;;;6.22;2.72;;;26.40;58.90;;;;;;6179109;28;81463;-61
2023/07/14 09:23:09;;;;;;;8.10;3.33;;;26.40;59.30;;;;;;6178587;28;83405;-68
2023/07/14 09:26:09;;;;;;;5.63;2.38;;;26.40;58.70;;;;;;6193015;28;80705;-56
2023/07/14 09:29:10;;;;;;;9.18;3.10;;;26.50;59.20;;;;;;6185945;28;82046;-60
2023/07/14 09:32:11;;;;;;;8.07;2.72;;;26.50;59.50;;;;;;6200819;27;81082;-59
2023/07/14 09:35:11;;;;;;;5.38;2.72;;;26.50;59.70;;;;;;6197075;28;80632;-60
2023/07/14 09:38:12;;;;;;;5.43;3.20;;;26.50;58.40;;;;;;6220241;28;87840;-60
2023/07/14 09:41:16;;;;;;;7.53;3.17;;;26.50;57.80;;;;;;6198413;28;81127;-60
2023/07/14 09:44:16;;;;;;;7.85;3.50;;;26.50;57.80;;;;;;6191297;28;80566;-65
2023/07/14 09:47:17;;;;;;;7.45;3.50;;;26.50;58.10;;;;;;6222097;28;80631;-65
2023/07/14 09:50:17;;;;;;;6.80;2.95;;;26.50;57.90;;;;;;6228010;27;80710;-63
2023/07/14 09:53:18;;;;;;;8.32;3.17;;;26.60;57.90;;;;;;6226655;27;80573;-66
2023/07/14 09:56:19;;;;;;;6.95;2.95;;;26.60;57.40;;;;;;6221121;27;81220;-59
2023/07/14 09:59:19;;;;;;;10.02;3.85;;;26.60;57.50;;;;;;6220797;27;80571;-60
2023/07/14 10:02:20;;;;;;;10.55;3.17;;;26.60;56.70;;;;;;6218983;27;80379;-66
2023/07/14 10:05:21;;;;;;;7.88;4.25;;;26.70;56.90;;;;;;6224856;27;80944;-66
2023/07/14 10:08:22;;;;;;;8.48;3.17;;;26.70;56.90;;;;;;6221921;28;82077;-67
2023/07/14 10:11:22;;;;;;;5.68;3.00;;;26.60;56.10;;;;;;6218540;27;81676;-66
2023/07/14 10:14:25;;;;;;;13.32;3.53;;;26.70;56.70;;;;;;6191476;28;80952;-70
2023/07/14 10:17:25;;;;;;;7.65;3.03;;;26.70;56.70;;;;;;6178756;28;80939;-75
2023/07/14 10:20:27;;;;;;;9.10;3.30;;;26.70;56.80;;;;;;6190316;28;80239;-58
2023/07/14 10:23:27;;;;;;;8.57;3.47;;;26.80;57.30;;;;;;6201680;27;81728;-59
2023/07/14 10:26:28;;;;;;;6.13;3.00;;;26.80;56.40;;;;;;6199593;27;80495;-60
2023/07/14 10:29:28;;;;;;;6.65;2.97;;;26.80;55.50;;;;;;6177469;28;80861;-60
2023/07/14 10:32:29;;;;;;;9.70;3.85;;;26.90;55.00;;;;;;6200332;28;83833;-59
2023/07/14 10:35:29;;;;;;;10.48;3.97;;;26.90;56.30;;;;;;6190657;28;80548;-61
2023/07/14 10:38:30;;;;;;;6.75;3.38;;;26.90;54.50;;;;;;6193014;28;80279;-64
2023/07/14 10:41:30;;;;;;;6.47;3.50;;;27.00;54.50;;;;;;6185980;28;81825;-61
2023/07/14 10:44:31;;;;;;;11.30;3.88;;;27.10;55.00;;;;;;6194774;28;81112;-64
2023/07/14 10:47:31;;;;;;;12.82;4.15;;;27.10;56.10;;;;;;6188367;28;81015;-65
2023/07/14 10:50:32;;;;;;;7.03;4.05;;;27.10;55.00;;;;;;6183830;28;80640;-68
2023/07/14 10:53:32;;;;;;;5.60;3.25;;;27.10;54.60;;;;;;6195086;27;81095;-68
2023/07/14 10:56:33;;;;;;;6.60;3.00;;;27.10;53.40;;;;;;6187817;28;82294;-59
2023/07/14 10:59:34;;;;;;;11.80;3.92;;;27.10;54.10;;;;;;6191676;28;80628;-58
2023/07/14 11:02:34;;;;;;;5.90;3.33;;;27.10;53.90;;;;;;6189937;28;80527;-58
2023/07/14 11:05:35;;;;;;;4.80;3.17;;;27.10;53.90;;;;;;6175691;28;82618;-59
2023/07/14 11:08:36;;;;;;;8.32;3.70;;;27.10;53.50;;;;;;6185161;28;81016;-57
2023/07/14 11:11:37;;;;;;;5.22;3.15;;;27.20;53.80;;;;;;6192075;28;81019;-59
2023/07/14 11:14:38;;;;;;;8.10;3.05;;;27.20;53.60;;;;;;6221709;27;85161;-67
2023/07/14 11:17:39;;;;;;;9.93;3.67;;;27.20;54.20;;;;;;6219854;28;80926;-62
2023/07/14 11:20:39;;;;;;;7.35;3.72;;;27.20;53.40;;;;;;6225510;27;80516;-65
2023/07/14 11:23:39;;;;;;;7.35;3.42;;;27.20;52.70;;;;;;6224049;27;81047;-64
2023/07/14 11:26:41;;;;;;;10.85;3.00;;;27.30;51.80;;;;;;6216860;27;80575;-64
2023/07/14 11:29:41;;;;;;;9.27;2.83;;;27.20;51.50;;;;;;6201891;28;81347;-64
2023/07/14 11:32:42;;;;;;;3.20;2.40;;;27.30;51.70;;;;;;6176267;28;80804;-64
2023/07/14 11:35:42;;;;;;;6.63;2.90;;;27.30;51.40;;;;;;6193438;27;84737;-64
2023/07/14 11:38:43;;;;;;;5.63;3.15;;;27.40;51.00;;;;;;6194655;28;82145;-67
2023/07/14 11:41:43;;;;;;;4.93;3.10;;;27.40;51.60;;;;;;6189389;28;86122;-67
2023/07/14 11:44:44;;;;;;;8.52;3.00;;;27.40;52.20;;;;;;6201927;27;81363;-66
2023/07/14 11:47:44;;;;;;;7.90;3.08;;;27.50;53.60;;;;;;6196220;27;80406;-64
2023/07/14 11:50:45;;;;;;;6.75;2.80;;;27.50;52.80;;;;;;6201293;27;80606;-65
2023/07/14 11:53:45;;;;;;;6.70;2.88;;;27.60;51.60;;;;;;6187954;28;82070;-59
2023/07/14 11:56:46;;;;;;;6.30;2.65;;;27.60;52.60;;;;;;6192136;28;81268;-59
2023/07/14 11:59:47;;;;;;;8.13;3.17;;;27.60;50.80;;;;;;6197189;27;80377;-57
2023/07/14 12:02:47;;;;;;;8.55;3.03;;;27.70;51.00;;;;;;6202625;27;81224;-58
2023/07/14 12:05:48;;;;;;;5.63;3.50;;;27.60;51.80;;;;;;6199475;28;80357;-59
2023/07/14 12:08:48;;;;;;;7.97;3.85;;;27.70;52.00;;;;;;6191856;28;80399;-58
2023/07/14 12:11:49;;;;;;;5.15;3.85;;;27.70;52.60;;;;;;6189559;28;80766;-61
2023/07/14 12:14:49;;;;;;;4.85;3.25;;;27.60;51.80;;;;;;6201549;27;80499;-61
2023/07/14 12:17:50;;;;;;;6.20;3.55;;;27.60;51.50;;;;;;6189568;28;80499;-63
2023/07/14 12:20:50;;;;;;;7.53;2.65;;;27.50;51.30;;;;;;6193564;28;80437;-61
2023/07/14 12:23:51;;;;;;;7.97;3.83;;;27.50;52.20;;;;;;6179345;28;80494;-58
2023/07/14 12:26:52;;;;;;;5.65;3.17;;;27.60;53.40;;;;;;6180760;27;81592;-59
2023/07/14 12:29:52;;;;;;;8.77;3.42;;;27.60;54.30;;;;;;6201305;27;81569;-71
2023/07/14 12:32:52;;;;;;;5.85;2.92;;;27.60;52.70;;;;;;6199054;27;81051;-72
2023/07/14 12:35:53;;;;;;;8.35;3.13;;;27.70;53.30;;;;;;6193869;27;80356;-79
2023/07/14 12:38:53;;;;;;;6.00;2.97;;;27.70;52.60;;;;;;6194879;28;80600;-72
2023/07/14 12:41:54;;;;;;;8.32;4.10;;;27.60;52.10;;;;;;6199027;27;80614;-73
2023/07/14 12:44:55;;;;;;;6.68;3.78;;;27.70;52.50;;;;;;6199711;28;81212;-75
2023/07/14 12:47:55;;;;;;;4.00;2.90;;;27.60;50.40;;;;;;6191846;27;81147;-79
2023/07/14 12:50:56;;;;;;;6.82;2.88;;;27.60;52.80;;;;;;6201444;28;81596;-70
2023/07/14 12:53:57;;;;;;;7.32;2.72;;;27.60;53.20;;;;;;6197187;27;80805;-73
2023/07/14 12:56:58;;;;;;;4.65;2.90;;;27.70;51.50;;;;;;6202079;27;82155;-73
2023/07/14 12:59:59;;;;;;;5.43;2.50;;;27.70;51.10;;;;;;6201482;27;80803;-71
2023/07/14 13:02:59;;;;;;;4.78;2.97;;;27.70;51.00;;;;;;6195839;27;80305;-67
2023/07/14 13:05:59;;;;;;;5.60;2.75;;;27.70;50.60;;;;;;6201268;27;80751;-60
2023/07/14 13:09:00;;;;;;;5.07;2.40;;;27.70;48.40;;;;;;6200880;27;81576;-61
2023/07/14 13:12:00;;;;;;;3.40;2.20;;;27.60;46.90;;;;;;6195610;28;80587;-60
2023/07/14 13:15:01;;;;;;;4.53;2.42;;;27.50;46.30;;;;;;6196050;27;80627;-58
2023/07/14 13:18:01;;;;;;;6.53;3.00;;;27.60;46.10;;;;;;6187804;28;81176;-59
2023/07/14 13:21:03;;;;;;;6.10;2.35;;;27.60;46.30;;;;;;6196017;27;80897;-59
2023/07/14 13:24:03;;;;;;;4.85;2.38;;;27.60;46.80;;;;;;6182879;28;82329;-69
2023/07/14 13:27:04;;;;;;;4.57;3.00;;;27.60;47.50;;;;;;6189726;28;80488;-66
2023/07/14 13:30:04;;;;;;;5.20;2.30;;;27.60;48.20;;;;;;6180510;28;82406;-69
2023/07/14 13:33:07;;;;;;;6.78;2.60;;;27.60;47.30;;;;;;6180719;28;80768;-69
2023/07/14 13:36:07;;;;;;;6.43;2.80;;;27.60;47.80;;;;;;6194070;28;81504;-68
2023/07/14 13:39:08;;;;;;;7.90;4.72;;;27.50;45.80;;;;;;6180114;28;80767;-73
2023/07/14 13:42:08;;;;;;;4.72;3.50;;;27.50;46.30;;;;;;6180650;28;81296;-72
2023/07/14 13:45:09;;;;;;;8.55;3.38;;;27.50;48.60;;;;;;6196183;28;80354;-68
2023/07/14 13:48:09;;;;;;;5.65;3.15;;;27.50;47.80;;;;;;6200019;27;80237;-71
2023/07/14 13:51:10;;;;;;;10.32;3.42;;;27.50;50.80;;;;;;6185035;28;80648;-65
2023/07/14 13:54:10;;;;;;;17.88;8.48;;;27.50;49.50;;;;;;6181660;28;80418;-74
2023/07/14 13:57:11;;;;;;;8.00;5.65;;;27.50;50.50;;;;;;6191995;28;81257;-72
2023/07/14 14:00:11;;;;;;;5.70;3.65;;;27.50;51.40;;;;;;6193033;28;80225;-59
2023/07/14 14:03:12;;;;;;;5.07;3.42;;;27.50;48.70;;;;;;6177128;28;82214;-60
2023/07/14 14:06:12;;;;;;;6.50;3.03;;;27.60;48.30;;;;;;6189233;28;80208;-60
2023/07/14 14:09:13;;;;;;;5.57;3.22;;;27.60;47.50;;;;;;6193119;27;81638;-60
2023/07/14 14:12:14;;;;;;;3.65;2.47;;;27.60;48.10;;;;;;6194336;27;82990;-60
2023/07/14 14:15:15;;;;;;;6.60;2.97;;;27.60;47.40;;;;;;6189517;27;80341;-60
2023/07/14 14:18:16;;;;;;;8.00;2.80;;;27.60;47.40;;;;;;6199228;28;80693;-61
2023/07/14 14:21:16;;;;;;;7.78;2.08;;;27.50;47.20;;;;;;6184694;28;80501;-60
2023/07/14 14:24:17;;;;;;;3.47;2.35;;;27.50;47.90;;;;;;6191194;28;81825;-63
2023/07/14 14:27:17;;;;;;;5.65;2.83;;;27.50;48.50;;;;;;6178297;28;80584;-61
2023/07/14 14:30:18;;;;;;;5.35;2.55;;;27.50;47.50;;;;;;6179599;28;80358;-66
2023/07/14 14:33:19;;;;;;;5.00;2.22;;;27.50;48.40;;;;;;6192701;27;80935;-65
2023/07/14 14:36:20;;;;;;;2.72;2.30;;;27.50;48.50;;;;;;6193559;27;81088;-61
2023/07/14 14:39:21;;;;;;;15.18;2.50;;;27.40;49.00;;;;;;6187814;28;80476;-62
2023/07/14 14:42:21;;;;;;;7.32;2.42;;;27.40;48.40;;;;;;6185017;28;81234;-60
2023/07/14 14:45:22;;;;;;;5.05;2.40;;;27.30;46.50;;;;;;6176246;27;80163;-60
2023/07/14 14:48:23;;;;;;;7.45;2.58;;;27.30;47.50;;;;;;6192115;27;80788;-62
2023/07/14 14:51:23;;;;;;;6.45;2.65;;;27.30;48.70;;;;;;6197040;28;82127;-59
2023/07/14 14:54:24;;;;;;;5.50;2.63;;;27.30;47.80;;;;;;6198766;28;81426;-58
2023/07/14 14:57:24;;;;;;;5.57;2.65;;;27.30;49.10;;;;;;6188637;28;80902;-58
2023/07/14 15:00:25;;;;;;;6.55;2.55;;;27.30;49.00;;;;;;6197647;27;81109;-60
2023/07/14 15:03:25;;;;;;;4.97;2.35;;;27.30;47.60;;;;;;6191770;28;80571;-58
2023/07/14 15:06:26;;;;;;;5.68;2.35;;;27.30;45.80;;;;;;6196667;28;80944;-58
2023/07/14 15:09:26;;;;;;;3.08;2.17;;;27.30;46.90;;;;;;6184892;27;80514;-58
2023/07/14 15:12:27;;;;;;;4.05;2.35;;;27.30;47.70;;;;;;6196534;28;81363;-58
2023/07/14 15:15:28;;;;;;;4.40;2.20;;;27.20;46.90;;;;;;6201202;27;81761;-59
2023/07/14 15:18:28;;;;;;;5.93;2.53;;;27.20;47.50;;;;;;6202293;27;80577;-58
2023/07/14 15:21:29;;;;;;;6.72;2.30;;;27.20;46.60;;;;;;6200226;27;81044;-60
2023/07/14 15:24:30;;;;;;;3.40;2.25;;;27.20;48.80;;;;;;6201509;27;80326;-58
2023/07/14 15:27:30;;;;;;;3.45;2.33;;;27.20;49.40;;;;;;6202211;28;80374;-58
2023/07/14 15:30:31;;;;;;;7.40;2.63;;;27.20;49.20;;;;;;6202102;27;80441;-59
2023/07/14 15:33:31;;;;;;;5.50;2.63;;;27.20;48.90;;;;;;6190359;28;83412;-58
2023/07/14 15:36:32;;;;;;;4.20;2.58;;;27.10;47.60;;;;;;6191579;27;86156;-59
2023/07/14 15:39:32;;;;;;;7.68;2.58;;;27.10;47.80;;;;;;6188344;28;80963;-58